Time;durP1;ratioP1;P1;durP2;ratioP2;P2;SDS_P1;SDS_P2;PMS_P1;PMS_P2;Temp;Humidity;BMP_temperature;BMP_pressure;BME280_temperature;BME280_humidity;BME280_pressure;Samples;Min_cycle;Max_cycle;Signal;HPM_P1;HPM_P2
2023/11/17 00:00:19;;;;;;;5.55;3.60;;;;;;;5.17;69.51;94827.59;5089808;28;20032;-76
2023/11/17 00:02:45;;;;;;;4.50;3.10;;;;;;;5.35;68.45;94820.50;5076865;28;20037;-76
2023/11/17 00:05:11;;;;;;;5.72;3.10;;;;;;;5.31;68.98;94804.38;5051568;28;20025;-75
2023/11/17 00:07:36;;;;;;;7.00;4.07;;;;;;;5.19;70.04;94812.06;5067396;28;20036;-76
2023/11/17 00:10:03;;;;;;;8.77;4.90;;;;;;;5.05;70.75;94790.56;5064234;28;20032;-75
2023/11/17 00:12:28;;;;;;;5.18;3.35;;;;;;;5.52;70.90;94803.97;5100798;28;20028;-76
2023/11/17 00:14:54;;;;;;;4.55;3.40;;;;;;;5.38;70.35;94792.78;5069674;28;20035;-74
2023/11/17 00:17:19;;;;;;;5.68;3.97;;;;;;;5.72;69.68;94810.44;5068435;28;20029;-76
2023/11/17 00:19:45;;;;;;;10.30;5.03;;;;;;;5.59;69.93;94811.19;5065612;28;20046;-76
2023/11/17 00:22:13;;;;;;;10.75;5.85;;;;;;;5.53;69.96;94787.59;5068460;28;20041;-76
2023/11/17 00:24:39;;;;;;;14.52;6.72;;;;;;;5.66;69.96;94803.09;5069981;28;20047;-76
2023/11/17 00:27:04;;;;;;;7.93;5.28;;;;;;;5.58;69.60;94803.59;5068996;28;20060;-75
2023/11/17 00:29:30;;;;;;;5.72;3.83;;;;;;;5.40;68.50;94778.97;5065855;28;20094;-76
2023/11/17 00:31:55;;;;;;;6.13;3.67;;;;;;;5.49;68.39;94784.38;5082612;28;20028;-76
2023/11/17 00:34:21;;;;;;;5.75;3.70;;;;;;;5.50;69.09;94780.88;5068588;28;20024;-76
2023/11/17 00:36:46;;;;;;;5.40;3.67;;;;;;;5.47;68.64;94780.25;5068932;28;20068;-75
2023/11/17 00:39:14;;;;;;;5.93;3.90;;;;;;;5.41;68.86;94786.59;5089845;28;20031;-76
2023/11/17 00:41:43;;;;;;;8.00;3.90;;;;;;;5.40;68.30;94772.06;5085913;28;20024;-75
2023/11/17 00:44:09;;;;;;;5.80;3.72;;;;;;;5.37;68.59;94769.69;5050956;28;20033;-75
2023/11/17 00:46:34;;;;;;;5.05;3.33;;;;;;;5.35;68.54;94777.53;5052128;28;20051;-75
2023/11/17 00:49:03;;;;;;;6.60;3.85;;;;;;;5.49;68.18;94786.97;5065229;28;20025;-75
2023/11/17 00:51:29;;;;;;;5.40;3.95;;;;;;;5.44;67.98;94773.53;5068702;28;20096;-76
2023/11/17 00:54:00;;;;;;;4.57;3.30;;;;;;;5.41;67.93;94781.47;5069618;28;20040;-76
2023/11/17 00:56:27;;;;;;;6.35;3.70;;;;;;;5.38;67.81;94785.06;5047406;28;20044;-76
2023/11/17 00:58:53;;;;;;;7.43;3.70;;;;;;;5.38;68.43;94777.31;5050120;28;20486;-75
2023/11/17 01:01:20;;;;;;;6.60;3.70;;;;;;;5.27;68.66;94754.00;5079530;28;20050;-75
2023/11/17 01:03:46;;;;;;;4.80;3.33;;;;;;;5.27;69.39;94768.63;5102340;28;20040;-75
2023/11/17 01:06:12;;;;;;;5.93;4.10;;;;;;;5.09;69.41;94768.81;5066889;28;20031;-75
2023/11/17 01:08:37;;;;;;;5.82;3.78;;;;;;;5.12;69.28;94765.22;5067663;28;20040;-75
2023/11/17 01:11:03;;;;;;;4.82;3.70;;;;;;;5.04;69.51;94754.59;5068461;28;20032;-75
2023/11/17 01:13:28;;;;;;;5.35;3.92;;;;;;;4.91;70.00;94768.22;5050654;28;20421;-75
2023/11/17 01:15:54;;;;;;;5.97;3.60;;;;;;;5.04;69.97;94759.72;5068740;28;20040;-75
2023/11/17 01:18:19;;;;;;;5.63;3.63;;;;;;;4.98;69.94;94755.78;5066962;28;20028;-75
2023/11/17 01:20:45;;;;;;;5.30;3.72;;;;;;;5.07;69.86;94756.97;5048011;28;20047;-75
2023/11/17 01:23:10;;;;;;;4.53;3.20;;;;;;;5.08;69.76;94748.34;5067102;28;20500;-76
2023/11/17 01:25:36;;;;;;;5.75;3.97;;;;;;;4.98;70.17;94722.31;5068420;28;20494;-76
2023/11/17 01:28:02;;;;;;;5.43;3.60;;;;;;;4.89;70.31;94705.69;5066629;28;20498;-75
2023/11/17 01:30:28;;;;;;;4.38;3.40;;;;;;;4.91;70.49;94718.50;5050850;28;20119;-75
2023/11/17 01:32:54;;;;;;;6.38;4.00;;;;;;;5.20;70.25;94710.69;5051201;28;20086;-75
2023/11/17 01:35:19;;;;;;;11.77;6.32;;;;;;;4.87;71.06;94696.41;5071002;28;20478;-76
2023/11/17 01:37:45;;;;;;;14.00;7.25;;;;;;;4.97;70.44;94694.09;5066947;28;20044;-75
2023/11/17 01:40:11;;;;;;;12.85;7.30;;;;;;;4.77;71.56;94698.75;5066455;28;20495;-75
2023/11/17 01:42:39;;;;;;;13.13;8.23;;;;;;;4.44;72.25;94676.72;5044771;28;20086;-75
2023/11/17 01:45:07;;;;;;;17.02;8.90;;;;;;;4.94;71.74;94692.56;5068473;28;20478;-75
2023/11/17 01:47:37;;;;;;;15.30;8.48;;;;;;;5.10;71.01;94710.44;5053889;28;20055;-74
2023/11/17 01:50:03;;;;;;;15.43;7.20;;;;;;;5.14;70.67;94696.44;5055845;28;20107;-75
2023/11/17 01:52:29;;;;;;;10.68;6.53;;;;;;;5.04;71.00;94690.22;5068912;28;20025;-76
2023/11/17 01:54:55;;;;;;;12.88;7.03;;;;;;;4.86;71.15;94697.34;5054702;28;20057;-75
2023/11/17 01:57:22;;;;;;;11.23;6.47;;;;;;;5.13;71.52;94703.34;5052832;28;20120;-76
2023/11/17 01:59:48;;;;;;;9.10;6.45;;;;;;;5.14;71.00;94691.28;5054245;28;20063;-75
2023/11/17 02:02:13;;;;;;;9.68;6.30;;;;;;;5.18;70.68;94697.88;5070854;28;20017;-75
2023/11/17 02:04:39;;;;;;;13.60;6.38;;;;;;;5.10;71.12;94710.44;5071988;28;20045;-75
2023/11/17 02:07:23;;;;;;;10.30;6.30;;;;;;;4.86;71.32;94671.59;5071798;28;20029;-75
2023/11/17 02:10:06;;;;;;;8.25;5.93;;;;;;;4.61;72.58;94698.03;5068924;28;20032;-75
2023/11/17 02:12:49;;;;;;;8.07;5.90;;;;;;;4.68;72.70;94695.00;5061239;28;20028;-75
2023/11/17 02:15:21;;;;;;;9.40;6.13;;;;;;;4.51;73.12;94694.34;5070299;28;20033;-76
2023/11/17 02:17:49;;;;;;;6.82;4.80;;;;;;;4.66;72.73;94676.25;5069202;28;20025;-75
2023/11/17 02:20:19;;;;;;;7.53;4.15;;;;;;;4.44;72.39;94670.78;5053563;28;20067;-75
2023/11/17 02:22:47;;;;;;;6.55;4.00;;;;;;;4.48;73.49;94679.94;5087430;28;20051;-75
2023/11/17 02:25:44;;;;;;;5.43;3.97;;;;;;;4.52;72.92;94678.03;5053771;28;20469;-76
2023/11/17 02:28:37;;;;;;;6.93;4.30;;;;;;;4.55;72.87;94673.50;5098914;28;20025;-75
2023/11/17 02:31:15;;;;;;;5.85;3.80;;;;;;;4.26;73.42;94662.41;5070642;28;20037;-75
2023/11/17 02:33:44;;;;;;;8.07;3.85;;;;;;;4.06;73.89;94660.22;5055748;28;20040;-75
2023/11/17 02:36:17;;;;;;;8.38;3.63;;;;;;;4.29;73.41;94657.09;5053195;28;20032;-75
2023/11/17 02:39:05;;;;;;;6.72;3.60;;;;;;;4.31;73.58;94660.38;5069412;28;20036;-75
2023/11/17 02:41:37;;;;;;;5.80;3.58;;;;;;;4.27;73.26;94650.41;5071301;28;20131;-75
2023/11/17 02:44:03;;;;;;;5.13;3.78;;;;;;;4.07;74.22;94646.44;5053683;28;20032;-75
2023/11/17 02:46:32;;;;;;;6.55;3.88;;;;;;;4.14;74.63;94638.25;5103468;28;20040;-75
2023/11/17 02:49:04;;;;;;;7.28;4.55;;;;;;;4.18;74.03;94626.91;5068088;28;20032;-74
2023/11/17 02:51:37;;;;;;;8.02;4.38;;;;;;;4.02;74.95;94628.72;5070738;28;20521;-75
2023/11/17 02:54:08;;;;;;;5.30;3.75;;;;;;;4.15;73.85;94633.94;5067776;28;20052;-75
2023/11/17 02:56:38;;;;;;;6.07;3.95;;;;;;;3.88;74.05;94595.31;5071725;28;20025;-75
2023/11/17 02:59:05;;;;;;;6.55;4.18;;;;;;;4.10;74.04;94626.53;5034429;28;20071;-75
2023/11/17 03:01:30;;;;;;;6.57;4.18;;;;;;;3.95;73.77;94602.56;5053772;28;20017;-75
2023/11/17 03:03:56;;;;;;;5.78;4.18;;;;;;;3.88;74.68;94616.72;5069153;28;20521;-75
2023/11/17 03:06:21;;;;;;;8.93;5.65;;;;;;;3.62;75.28;94604.56;5052667;28;20024;-75
2023/11/17 03:08:49;;;;;;;9.05;4.55;;;;;;;3.29;76.36;94574.81;5100155;28;20040;-75
2023/11/17 03:11:21;;;;;;;7.25;4.72;;;;;;;3.37;76.89;94603.41;5052261;28;20040;-75
2023/11/17 03:13:48;;;;;;;6.40;4.78;;;;;;;3.27;77.75;94581.78;5068671;28;20072;-75
2023/11/17 03:16:23;;;;;;;7.68;4.68;;;;;;;3.08;77.82;94577.69;5071033;28;20099;-75
2023/11/17 03:18:52;;;;;;;9.00;5.55;;;;;;;3.09;79.39;94575.94;5067066;28;20028;-75
2023/11/17 03:21:19;;;;;;;7.25;4.95;;;;;;;3.54;77.63;94577.59;5076516;28;20213;-76
2023/11/17 03:23:44;;;;;;;13.57;7.85;;;;;;;3.01;78.28;94553.31;5069831;28;20037;-75
2023/11/17 03:26:11;;;;;;;12.98;7.68;;;;;;;2.95;78.98;94566.47;5070701;28;20039;-75
2023/11/17 03:28:37;;;;;;;15.18;9.38;;;;;;;3.29;78.99;94575.63;5065760;28;20645;-75
2023/11/17 03:31:03;;;;;;;14.25;9.18;;;;;;;3.06;79.61;94533.31;5069403;28;20032;-75
2023/11/17 03:33:30;;;;;;;16.23;8.23;;;;;;;2.97;79.32;94568.97;5051873;28;20520;-75
2023/11/17 03:35:55;;;;;;;20.77;11.60;;;;;;;3.16;79.79;94563.59;5086405;28;20028;-75
2023/11/17 03:38:21;;;;;;;15.07;8.75;;;;;;;3.11;79.51;94543.31;5065497;28;20401;-75
2023/11/17 03:40:47;;;;;;;31.58;18.85;;;;;;;3.01;79.94;94555.03;5055525;28;20092;-75
2023/11/17 03:43:13;;;;;;;25.65;15.52;;;;;;;3.27;79.59;94540.69;5061555;28;20036;-75
2023/11/17 03:45:43;;;;;;;17.92;11.65;;;;;;;3.09;79.77;94542.56;5069468;28;20085;-75
2023/11/17 03:48:08;;;;;;;11.55;8.32;;;;;;;3.40;78.92;94539.06;5065954;28;20475;-75
2023/11/17 03:50:35;;;;;;;11.30;7.57;;;;;;;3.32;78.52;94531.81;5068512;28;20029;-75
2023/11/17 03:53:00;;;;;;;10.70;7.00;;;;;;;3.41;78.53;94539.88;5070391;28;20041;-75
2023/11/17 03:55:27;;;;;;;11.15;6.95;;;;;;;3.24;78.20;94528.03;5068171;28;20090;-75
2023/11/17 03:57:52;;;;;;;12.30;7.43;;;;;;;3.34;78.34;94531.69;5066004;28;20109;-74
2023/11/17 04:00:22;;;;;;;11.82;6.88;;;;;;;2.94;78.10;94492.97;5034457;28;20486;-75
2023/11/17 04:02:52;;;;;;;11.00;7.38;;;;;;;3.44;77.31;94525.13;5067320;28;20036;-75
2023/11/17 04:05:20;;;;;;;12.23;6.63;;;;;;;3.33;76.79;94504.38;5051529;28;20028;-75
2023/11/17 04:07:48;;;;;;;12.98;6.68;;;;;;;2.90;77.32;94478.69;5065322;28;20033;-75
2023/11/17 04:10:14;;;;;;;10.25;6.28;;;;;;;3.35;76.88;94536.75;5069113;28;20116;-75
2023/11/17 04:12:39;;;;;;;10.43;6.60;;;;;;;3.35;76.81;94546.22;5068127;28;20039;-75
2023/11/17 04:15:06;;;;;;;10.20;6.10;;;;;;;3.17;76.61;94526.75;5069211;28;20044;-74
2023/11/17 04:17:33;;;;;;;11.20;6.22;;;;;;;3.08;76.22;94517.84;5049563;28;20032;-76
2023/11/17 04:19:58;;;;;;;8.15;5.85;;;;;;;2.71;77.94;94539.66;5051172;28;20044;-74
2023/11/17 04:22:24;;;;;;;8.43;5.95;;;;;;;2.52;79.17;94521.91;5068573;28;20024;-75
2023/11/17 04:24:49;;;;;;;9.68;6.20;;;;;;;2.42;79.43;94552.34;5070441;28;20482;-75
2023/11/17 04:27:15;;;;;;;8.65;6.38;;;;;;;2.54;80.22;94550.84;5069923;28;20036;-76
2023/11/17 04:29:41;;;;;;;11.07;6.15;;;;;;;2.57;79.95;94551.50;5065067;28;20029;-75
2023/11/17 04:32:07;;;;;;;11.88;5.68;;;;;;;2.63;79.08;94548.59;5069743;28;20031;-75
2023/11/17 04:34:32;;;;;;;10.63;5.97;;;;;;;2.54;80.43;94558.56;5062040;28;20429;-74
2023/11/17 04:36:58;;;;;;;7.63;5.60;;;;;;;2.43;79.69;94526.63;5068442;28;20032;-75
2023/11/17 04:39:24;;;;;;;8.70;5.70;;;;;;;2.32;79.57;94551.22;5049464;28;20116;-75
2023/11/17 04:41:51;;;;;;;11.20;5.38;;;;;;;2.46;79.64;94541.84;5070591;28;20107;-75
2023/11/17 04:44:17;;;;;;;7.60;5.80;;;;;;;2.34;79.91;94528.88;5050340;28;20044;-75
2023/11/17 04:46:42;;;;;;;8.20;5.47;;;;;;;2.29;80.85;94515.50;5058806;28;21051;-75
2023/11/17 04:49:08;;;;;;;8.93;5.57;;;;;;;2.31;80.86;94527.28;5082105;28;20115;-75
2023/11/17 04:51:35;;;;;;;6.45;5.07;;;;;;;2.37;81.15;94536.41;5069385;28;20044;-75
2023/11/17 04:54:01;;;;;;;7.93;5.40;;;;;;;2.36;80.87;94560.38;5069091;28;20060;-75
2023/11/17 04:56:28;;;;;;;7.25;5.57;;;;;;;2.59;80.36;94562.50;5052126;28;20035;-75
2023/11/17 04:58:54;;;;;;;7.65;5.75;;;;;;;2.44;80.38;94553.91;5048102;28;20101;-74
2023/11/17 05:01:20;;;;;;;6.45;4.82;;;;;;;2.62;79.75;94564.09;5069313;28;20472;-75
2023/11/17 05:03:45;;;;;;;7.93;5.53;;;;;;;2.53;79.74;94552.56;5068614;28;20043;-75
2023/11/17 05:06:11;;;;;;;10.02;5.63;;;;;;;2.43;80.08;94561.69;5070266;28;20036;-75
2023/11/17 05:08:36;;;;;;;7.80;5.40;;;;;;;2.41;81.04;94537.88;5066376;28;20407;-75
2023/11/17 05:11:04;;;;;;;8.48;5.18;;;;;;;2.65;80.46;94526.25;5068053;28;20510;-75
2023/11/17 05:13:30;;;;;;;7.30;5.25;;;;;;;2.63;80.63;94543.47;5051677;28;20040;-76
2023/11/17 05:15:56;;;;;;;6.43;5.15;;;;;;;2.77;80.51;94550.38;5068765;28;20086;-75
2023/11/17 05:18:21;;;;;;;10.90;5.45;;;;;;;2.78;81.05;94525.56;5065711;28;20040;-75
2023/11/17 05:20:47;;;;;;;7.00;5.25;;;;;;;2.84;80.71;94540.59;5071099;28;20090;-75
2023/11/17 05:23:14;;;;;;;10.40;5.90;;;;;;;2.88;81.08;94535.22;5073688;28;20409;-76
2023/11/17 05:25:40;;;;;;;7.05;5.32;;;;;;;2.88;81.22;94522.38;5105874;28;20037;-75
2023/11/17 05:28:08;;;;;;;9.32;6.15;;;;;;;3.07;81.35;94531.59;5051221;28;20021;-76
2023/11/17 05:30:34;;;;;;;7.40;5.50;;;;;;;2.95;81.83;94492.03;5088381;28;20124;-75
2023/11/17 05:33:00;;;;;;;8.77;6.25;;;;;;;2.98;81.24;94499.59;5072268;28;20062;-76
2023/11/17 05:35:25;;;;;;;9.98;6.00;;;;;;;3.18;81.77;94489.91;5055694;28;20029;-76
2023/11/17 05:37:51;;;;;;;8.18;5.57;;;;;;;3.32;81.39;94457.34;5067815;28;20043;-76
2023/11/17 05:40:37;;;;;;;9.57;5.60;;;;;;;3.30;81.59;94460.91;5072772;28;20036;-76
2023/11/17 05:43:05;;;;;;;7.95;5.85;;;;;;;3.24;81.64;94481.84;5072140;28;20032;-76
2023/11/17 05:45:31;;;;;;;7.53;5.63;;;;;;;3.62;80.48;94478.69;5071825;28;20032;-76
2023/11/17 05:47:56;;;;;;;10.15;6.57;;;;;;;3.63;80.42;94470.09;5070302;28;20879;-76
2023/11/17 05:50:22;;;;;;;10.65;7.00;;;;;;;3.55;79.41;94442.28;5071992;28;20028;-76
2023/11/17 05:52:47;;;;;;;8.57;6.15;;;;;;;3.63;79.12;94467.50;5071513;28;20051;-76
2023/11/17 05:55:16;;;;;;;8.57;5.60;;;;;;;3.73;79.57;94473.72;5069892;28;20056;-76
2023/11/17 05:57:42;;;;;;;10.48;5.75;;;;;;;3.75;79.40;94474.47;5068650;28;20068;-77
2023/11/17 06:00:09;;;;;;;8.20;5.35;;;;;;;3.84;79.13;94483.34;5074665;28;20060;-75
2023/11/17 06:02:35;;;;;;;11.02;7.30;;;;;;;3.61;79.79;94466.78;5104097;28;20044;-76
2023/11/17 06:05:00;;;;;;;15.52;10.13;;;;;;;3.84;79.74;94498.75;5087851;28;20426;-76
2023/11/17 06:07:25;;;;;;;21.73;13.13;;;;;;;3.86;78.78;94456.63;5052211;28;20042;-76
2023/11/17 06:09:51;;;;;;;20.05;14.77;;;;;;;4.19;78.27;94483.72;5069109;28;20028;-76
2023/11/17 06:12:16;;;;;;;20.23;15.18;;;;;;;4.21;77.75;94484.47;5086577;28;20020;-76
2023/11/17 06:14:42;;;;;;;20.13;14.20;;;;;;;3.95;78.80;94492.03;5072214;28;20487;-76
2023/11/17 06:17:11;;;;;;;21.55;15.05;;;;;;;3.89;79.29;94487.28;5067613;28;20494;-76
2023/11/17 06:19:39;;;;;;;23.80;17.55;;;;;;;3.95;79.22;94478.34;5050825;28;20090;-76
2023/11/17 06:22:06;;;;;;;23.92;16.85;;;;;;;4.18;78.41;94474.34;5071050;28;20059;-76
2023/11/17 06:24:32;;;;;;;25.55;17.35;;;;;;;4.35;77.54;94471.56;5070858;28;20044;-76
2023/11/17 06:26:59;;;;;;;22.35;17.42;;;;;;;4.08;78.09;94465.56;5070997;28;20032;-76
2023/11/17 06:29:25;;;;;;;24.20;16.92;;;;;;;4.19;78.41;94481.97;5065815;28;20028;-76
2023/11/17 06:31:50;;;;;;;22.92;16.50;;;;;;;4.24;77.80;94481.69;5070627;28;20393;-76
2023/11/17 06:34:16;;;;;;;23.08;15.13;;;;;;;4.36;78.08;94487.78;5070178;28;20043;-75
2023/11/17 06:36:41;;;;;;;22.35;15.65;;;;;;;4.52;76.50;94482.50;5071884;28;20036;-76
2023/11/17 06:39:18;;;;;;;28.92;18.75;;;;;;;4.35;77.00;94486.97;5066929;28;20689;-76
2023/11/17 06:41:43;;;;;;;32.95;19.75;;;;;;;4.30;78.00;94501.06;5054420;28;20037;-76
2023/11/17 06:44:12;;;;;;;39.80;22.15;;;;;;;4.62;76.33;94494.66;5070045;28;20040;-76
2023/11/17 06:46:41;;;;;;;20.10;13.93;;;;;;;4.57;76.56;94481.28;5067287;28;20029;-76
2023/11/17 06:49:08;;;;;;;22.60;12.35;;;;;;;4.65;76.63;94473.06;5049817;28;20143;-76
2023/11/17 06:51:41;;;;;;;15.20;9.93;;;;;;;4.58;76.48;94454.63;5069950;28;20111;-76
2023/11/17 06:54:11;;;;;;;11.57;9.15;;;;;;;4.77;76.24;94449.09;5054624;28;20127;-76
2023/11/17 06:56:43;;;;;;;13.18;8.50;;;;;;;4.69;75.50;94464.22;5068280;28;20036;-76
2023/11/17 06:59:09;;;;;;;12.85;9.05;;;;;;;4.61;76.25;94481.91;5065873;28;20053;-76
2023/11/17 07:01:35;;;;;;;11.60;8.73;;;;;;;4.79;75.92;94475.56;5070123;28;20039;-76
2023/11/17 07:04:07;;;;;;;12.35;8.40;;;;;;;4.97;75.46;94454.69;5068875;28;20036;-76
2023/11/17 07:06:34;;;;;;;13.93;10.35;;;;;;;4.81;75.96;94447.97;5070149;28;20063;-76
2023/11/17 07:08:59;;;;;;;15.18;10.60;;;;;;;5.04;75.24;94427.59;5063736;28;20510;-76
2023/11/17 07:11:25;;;;;;;17.30;10.98;;;;;;;5.17;74.96;94433.56;5060635;28;20026;-76
2023/11/17 07:13:52;;;;;;;13.60;10.55;;;;;;;5.30;74.09;94428.41;5055635;28;20066;-76
2023/11/17 07:16:20;;;;;;;15.35;11.13;;;;;;;5.05;74.61;94434.41;5084852;28;20032;-78
2023/11/17 07:18:46;;;;;;;18.50;11.93;;;;;;;5.09;74.73;94425.53;5069408;28;20418;-77
2023/11/17 07:21:12;;;;;;;17.25;11.35;;;;;;;5.14;74.82;94429.44;5069154;28;20116;-77
2023/11/17 07:23:43;;;;;;;17.02;11.75;;;;;;;4.89;75.78;94465.50;5053664;28;20498;-77
2023/11/17 07:26:17;;;;;;;20.05;13.10;;;;;;;5.00;76.41;94473.31;5068868;28;20021;-75
2023/11/17 07:28:46;;;;;;;21.38;14.48;;;;;;;5.14;76.51;94474.97;5066038;28;20052;-74
2023/11/17 07:31:17;;;;;;;19.70;14.40;;;;;;;5.31;76.44;94455.81;5046948;28;20028;-77
2023/11/17 07:33:44;;;;;;;19.45;14.25;;;;;;;5.27;75.96;94408.84;5068011;28;20098;-77
2023/11/17 07:36:15;;;;;;;20.23;14.52;;;;;;;5.15;76.19;94389.91;5066872;28;20028;-75
2023/11/17 07:38:42;;;;;;;19.88;13.18;;;;;;;5.68;76.84;94412.88;5066706;28;20053;-76
2023/11/17 07:41:07;;;;;;;19.42;14.20;;;;;;;6.27;72.34;94399.28;5068146;28;20032;-75
2023/11/17 07:43:33;;;;;;;21.33;14.18;;;;;;;6.36;72.37;94406.34;5065972;28;20513;-74
2023/11/17 07:45:58;;;;;;;22.60;14.68;;;;;;;6.54;71.99;94409.34;5058461;28;20464;-76
2023/11/17 07:48:24;;;;;;;19.83;12.82;;;;;;;6.37;71.15;94366.72;5065301;28;20456;-75
2023/11/17 07:50:52;;;;;;;18.10;13.10;;;;;;;6.57;70.73;94374.75;5074222;28;20583;-76
2023/11/17 07:53:18;;;;;;;20.20;13.45;;;;;;;6.79;69.58;94379.13;5069874;28;20028;-75
2023/11/17 07:55:44;;;;;;;19.77;14.52;;;;;;;6.68;70.39;94403.16;5065058;28;20063;-76
2023/11/17 07:58:11;;;;;;;21.63;14.10;;;;;;;6.97;69.11;94408.75;5064585;28;20043;-76
2023/11/17 08:00:37;;;;;;;28.15;17.10;;;;;;;6.76;69.51;94403.41;5064830;28;20029;-76
2023/11/17 08:03:02;;;;;;;21.70;14.40;;;;;;;6.84;69.86;94402.84;5069130;28;20104;-76
2023/11/17 08:05:28;;;;;;;19.58;14.45;;;;;;;6.69;69.74;94410.81;5068876;28;20055;-76
2023/11/17 08:07:54;;;;;;;20.70;15.18;;;;;;;6.69;70.28;94421.13;5065707;28;20040;-76
2023/11/17 08:10:20;;;;;;;19.08;13.95;;;;;;;6.89;69.98;94418.84;5066966;28;20649;-76
2023/11/17 08:12:46;;;;;;;19.60;13.38;;;;;;;6.91;70.24;94416.97;5051283;28;20421;-73
2023/11/17 08:15:12;;;;;;;16.95;14.10;;;;;;;7.07;69.58;94435.53;5069529;28;20040;-75
2023/11/17 08:17:37;;;;;;;23.00;14.43;;;;;;;7.06;69.29;94433.88;5050271;28;20443;-73
2023/11/17 08:20:13;;;;;;;18.08;14.00;;;;;;;6.86;69.97;94401.81;5071551;28;20036;-75
2023/11/17 08:22:39;;;;;;;19.90;13.75;;;;;;;6.90;69.93;94420.47;5084094;28;20406;-75
2023/11/17 08:25:06;;;;;;;18.55;13.80;;;;;;;7.24;69.35;94423.09;5068399;28;20036;-75
2023/11/17 08:27:32;;;;;;;21.70;13.38;;;;;;;7.10;69.56;94398.31;5036281;28;20482;-75
2023/11/17 08:29:57;;;;;;;16.65;13.10;;;;;;;6.47;70.91;94366.88;5053075;28;20082;-75
2023/11/17 08:32:23;;;;;;;17.30;11.30;;;;;;;6.62;72.18;94409.59;5069982;28;20029;-75
2023/11/17 08:34:48;;;;;;;14.65;10.95;;;;;;;6.46;72.95;94403.91;5050295;28;20024;-78
2023/11/17 08:37:14;;;;;;;19.02;12.43;;;;;;;6.62;72.21;94381.22;5069284;28;20052;-76
2023/11/17 08:39:39;;;;;;;17.02;12.30;;;;;;;6.54;72.23;94360.31;5068156;28;20055;-76
2023/11/17 08:42:05;;;;;;;15.35;11.63;;;;;;;6.17;74.57;94357.84;5069555;28;20029;-76
2023/11/17 08:44:30;;;;;;;16.98;11.25;;;;;;;6.23;74.29;94354.00;5069452;28;20040;-76
2023/11/17 08:46:57;;;;;;;19.15;12.27;;;;;;;6.32;73.22;94347.34;5069220;28;20047;-76
2023/11/17 08:49:22;;;;;;;15.90;10.90;;;;;;;6.23;74.94;94339.34;5036398;28;20475;-76
2023/11/17 08:51:47;;;;;;;13.05;10.10;;;;;;;6.48;74.42;94309.97;5069502;28;20061;-76
2023/11/17 08:54:14;;;;;;;13.68;10.18;;;;;;;6.14;75.96;94249.75;5069146;28;20052;-76
2023/11/17 08:56:39;;;;;;;12.55;8.00;;;;;;;6.78;72.55;94306.03;5069176;28;20421;-76
2023/11/17 08:59:05;;;;;;;15.55;11.90;;;;;;;6.83;73.91;94297.94;5069523;28;20035;-76
2023/11/17 09:01:32;;;;;;;11.85;9.27;;;;;;;7.07;69.47;94259.06;5032369;28;21898;-76
2023/11/17 09:03:57;;;;;;;18.55;13.35;;;;;;;6.87;71.70;94289.84;5068730;28;20528;-76
2023/11/17 09:06:23;;;;;;;20.88;12.95;;;;;;;6.95;71.54;94302.16;5070330;28;20025;-76
2023/11/17 09:08:48;;;;;;;18.25;9.80;;;;;;;6.55;71.45;94276.00;5069361;28;20111;-76
2023/11/17 09:11:14;;;;;;;18.15;12.00;;;;;;;6.57;72.65;94303.28;5069259;28;20072;-76
2023/11/17 09:13:40;;;;;;;16.67;12.07;;;;;;;6.75;73.01;94287.38;5052423;28;20429;-76
2023/11/17 09:16:07;;;;;;;16.58;10.25;;;;;;;6.61;73.29;94268.59;5069303;28;20109;-76
2023/11/17 09:18:32;;;;;;;16.90;11.73;;;;;;;6.39;73.85;94278.88;5070801;28;20374;-76
2023/11/17 09:20:58;;;;;;;19.83;12.90;;;;;;;6.51;74.43;94274.56;5069449;28;20036;-76
2023/11/17 09:23:23;;;;;;;18.88;13.18;;;;;;;6.45;73.68;94293.91;5070711;28;20097;-76
2023/11/17 09:25:49;;;;;;;22.50;13.95;;;;;;;6.56;74.80;94306.81;5069225;28;20028;-75
2023/11/17 09:28:16;;;;;;;20.75;15.65;;;;;;;6.77;73.66;94272.56;5069651;28;20090;-76
2023/11/17 09:30:42;;;;;;;17.38;12.95;;;;;;;6.59;73.34;94285.94;5069312;28;20037;-76
2023/11/17 09:33:08;;;;;;;23.05;13.48;;;;;;;6.95;73.48;94276.34;5069270;28;20031;-76
2023/11/17 09:35:36;;;;;;;22.05;14.60;;;;;;;6.88;73.08;94270.00;5052576;28;20028;-76
2023/11/17 09:38:04;;;;;;;15.70;11.90;;;;;;;6.98;72.28;94289.00;5068143;28;20401;-76
2023/11/17 09:40:32;;;;;;;17.88;13.57;;;;;;;7.22;70.57;94268.22;5052201;28;20078;-76
2023/11/17 09:42:59;;;;;;;16.67;12.88;;;;;;;6.86;71.69;94252.06;5052761;28;20040;-76
2023/11/17 09:45:26;;;;;;;17.48;12.55;;;;;;;7.16;71.35;94277.28;5069252;28;20033;-77
2023/11/17 09:47:57;;;;;;;19.48;12.93;;;;;;;7.28;71.22;94288.41;5082218;28;20028;-78
2023/11/17 09:50:24;;;;;;;14.48;11.10;;;;;;;7.51;70.31;94294.34;5091299;28;20459;-78
2023/11/17 09:52:53;;;;;;;17.58;12.00;;;;;;;7.33;70.69;94275.13;5069076;28;20040;-76
2023/11/17 09:55:22;;;;;;;22.08;13.55;;;;;;;7.53;72.18;94289.88;5069477;28;20139;-79
2023/11/17 09:57:53;;;;;;;16.52;12.68;;;;;;;7.55;72.88;94285.41;5035042;28;20035;-76
2023/11/17 10:00:20;;;;;;;18.65;12.88;;;;;;;7.62;72.98;94265.06;5053358;28;20509;-78
2023/11/17 10:02:54;;;;;;;19.92;12.57;;;;;;;7.61;74.35;94274.59;5070338;28;20043;-77
2023/11/17 10:05:23;;;;;;;16.13;12.05;;;;;;;7.45;74.70;94245.72;5052891;28;20546;-73
2023/11/17 10:07:55;;;;;;;17.02;10.90;;;;;;;7.36;74.78;94249.88;5054578;28;20559;-77
2023/11/17 10:10:21;;;;;;;;;;;;;;;7.67;75.61;94246.59;5071490;28;20058;-74
2023/11/17 10:12:48;;;;;;;17.90;11.77;;;;;;;7.62;75.66;94241.78;5073920;28;19920;-77
2023/11/17 10:15:15;;;;;;;13.80;11.70;;;;;;;7.74;75.25;94245.97;5049814;28;20040;-76
2023/11/17 10:17:41;;;;;;;16.45;11.98;;;;;;;7.86;74.35;94241.59;5046116;28;20687;-77
2023/11/17 10:20:13;;;;;;;13.10;10.60;;;;;;;7.88;73.82;94231.94;5038259;28;20486;-77
2023/11/17 10:22:42;;;;;;;15.93;10.95;;;;;;;7.85;73.29;94234.75;5087992;28;20052;-77
2023/11/17 10:25:13;;;;;;;14.20;11.10;;;;;;;7.78;74.38;94231.88;5086361;28;20094;-76
2023/11/17 10:27:40;;;;;;;15.55;11.05;;;;;;;7.96;72.48;94237.28;5071410;28;20028;-72
2023/11/17 10:30:07;;;;;;;13.45;10.63;;;;;;;8.02;72.92;94234.22;5034767;28;20041;-77
2023/11/17 10:32:34;;;;;;;14.02;11.05;;;;;;;8.11;72.31;94240.41;5071749;28;20074;-77
2023/11/17 10:35:11;;;;;;;14.32;10.35;;;;;;;8.15;72.76;94218.50;5053885;28;20033;-77
2023/11/17 10:37:36;;;;;;;14.40;9.88;;;;;;;8.19;71.57;94214.72;5038398;28;20032;-77
2023/11/17 10:40:02;;;;;;;12.65;9.80;;;;;;;8.24;72.92;94214.34;5069782;28;20040;-77
2023/11/17 10:42:32;;;;;;;21.83;11.18;;;;;;;8.40;72.15;94206.97;5053258;28;20440;-77
2023/11/17 10:44:57;;;;;;;11.35;9.35;;;;;;;8.46;71.02;94206.44;5071641;28;20036;-76
2023/11/17 10:47:23;;;;;;;12.75;10.27;;;;;;;8.64;71.04;94203.28;5068871;28;20118;-77
2023/11/17 10:50:06;;;;;;;12.07;9.10;;;;;;;8.78;72.29;94189.16;5050413;28;20037;-76
2023/11/17 10:52:32;;;;;;;12.07;9.35;;;;;;;8.57;71.73;94177.06;5052813;28;20081;-77
2023/11/17 10:54:59;;;;;;;14.32;8.82;;;;;;;8.80;72.09;94175.09;5071197;28;20123;-77
2023/11/17 10:57:26;;;;;;;12.18;7.80;;;;;;;8.78;70.14;94151.13;5063916;28;20496;-77
2023/11/17 10:59:52;;;;;;;12.27;8.70;;;;;;;8.80;69.93;94161.31;5052289;28;20045;-76
2023/11/17 11:02:19;;;;;;;24.30;14.57;;;;;;;8.78;69.89;94155.47;5070549;28;20505;-76
2023/11/17 11:04:46;;;;;;;29.83;18.52;;;;;;;8.91;69.01;94149.13;5049846;28;20082;-76
2023/11/17 11:07:14;;;;;;;29.73;18.42;;;;;;;8.93;68.68;94120.47;5056814;28;20087;-77
2023/11/17 11:09:39;;;;;;;18.70;10.07;;;;;;;9.00;68.21;94107.78;5033516;28;20049;-77
2023/11/17 11:12:13;;;;;;;39.50;23.88;;;;;;;8.87;68.94;94115.84;5071740;28;20027;-76
2023/11/17 11:14:42;;;;;;;24.83;15.63;;;;;;;8.89;69.79;94111.34;5052905;28;20487;-76
2023/11/17 11:17:09;;;;;;;19.88;12.75;;;;;;;8.91;68.75;94084.34;5069597;28;20042;-76
2023/11/17 11:19:35;;;;;;;16.85;11.45;;;;;;;9.09;69.63;94086.28;5061139;28;20115;-76
2023/11/17 11:22:00;;;;;;;13.43;8.90;;;;;;;9.20;69.79;94093.91;5064286;28;20124;-77
2023/11/17 11:24:33;;;;;;;11.52;8.18;;;;;;;9.48;69.12;94062.94;5036967;28;20044;-77
2023/11/17 11:27:00;;;;;;;11.27;8.77;;;;;;;9.86;67.68;94059.41;5051525;28;20627;-76
2023/11/17 11:29:26;;;;;;;15.07;9.20;;;;;;;10.01;67.36;94065.81;5068142;28;20028;-77
2023/11/17 11:31:51;;;;;;;11.32;8.35;;;;;;;10.18;66.48;94055.66;5034330;28;20020;-77
2023/11/17 11:34:17;;;;;;;13.15;9.02;;;;;;;10.20;65.53;94067.53;5069569;28;20024;-77